Terminal Aerodrome Forecast
Issued by NWS

Home | Current Version | Previous Version | Text Only | Print | Product List | Glossary On
Versions: 1 2 3 4 5 6 7 8 9 10 11 12 13 14
000
FTUS45 KPIH 132300
TAFSUN
TAF
KSUN 132320Z 1400/1424 15007KT P6SM FEW080 SCT120
     FM140400 31011KT P6SM FEW120
     FM141300 31007KT P6SM VCSH SCT120 BKN150
     FM141700 15008KT P6SM VCTS SCT100 BKN150CB
      AMD LTD TO CLD VIS AND WIND 1405/1413=

USA.gov is the U.S. government's official web portal to all federal, state and local government web resources and services.